Time;durP1;ratioP1;P1;durP2;ratioP2;P2;SDS_P1;SDS_P2;PMS_P1;PMS_P2;Temp;Humidity;BMP_temperature;BMP_pressure;BME280_temperature;BME280_humidity;BME280_pressure;Samples;Min_cycle;Max_cycle;Signal;HPM_P1;HPM_P2
2022/05/31 00:01:47;;;;;;;9.95;2.53;;;;;;;;;;5073834;28;20550;-83
2022/05/31 00:04:13;;;;;;;12.63;2.45;;;;;;;;;;5060281;28;20029;-83
2022/05/31 00:06:39;;;;;;;14.30;3.67;;;;;;;;;;5084396;28;20020;-83
2022/05/31 00:09:05;;;;;;;6.43;2.63;;;;;;;;;;5082069;28;20131;-85
2022/05/31 00:11:32;;;;;;;12.35;3.10;;;;;;;;;;5063583;28;20061;-83
2022/05/31 00:13:58;;;;;;;9.20;2.83;;;;;;;;;;5073459;28;20024;-84
2022/05/31 00:16:24;;;;;;;6.30;2.55;;;;;;;;;;5054823;28;20024;-84
2022/05/31 00:18:50;;;;;;;9.10;2.72;;;;;;;;;;5073485;28;20017;-85
2022/05/31 00:21:16;;;;;;;5.25;2.95;;;;;;;;;;5054914;28;20051;-85
2022/05/31 00:23:43;;;;;;;9.32;2.38;;;;;;;;;;5054584;28;20445;-83
2022/05/31 00:26:09;;;;;;;7.90;3.97;;;;;;;;;;5072938;28;20020;-84
2022/05/31 00:28:35;;;;;;;25.58;4.35;;;;;;;;;;5054344;28;20033;-83
2022/05/31 00:31:03;;;;;;;8.80;2.58;;;;;;;;;;5054746;28;20028;-83
2022/05/31 00:33:29;;;;;;;5.07;2.00;;;;;;;;;;5072591;28;20039;-84
2022/05/31 00:35:56;;;;;;;6.97;2.30;;;;;;;;;;5072626;28;20107;-84
2022/05/31 00:38:22;;;;;;;8.40;2.42;;;;;;;;;;5072501;28;20024;-84
2022/05/31 00:40:48;;;;;;;3.90;2.33;;;;;;;;;;5072059;28;20024;-84
2022/05/31 00:43:22;;;;;;;6.97;2.08;;;;;;;;;;5054611;28;20111;-83
2022/05/31 00:45:50;;;;;;;8.73;2.85;;;;;;;;;;5073007;28;20016;-83
2022/05/31 00:48:25;;;;;;;7.35;2.22;;;;;;;;;;5073083;28;20031;-83
2022/05/31 00:50:54;;;;;;;21.55;2.80;;;;;;;;;;5059437;28;20016;-84
2022/05/31 00:53:24;;;;;;;11.07;2.75;;;;;;;;;;5071943;28;20036;-84
2022/05/31 00:55:50;;;;;;;;;;;;;;;;;;5072714;28;20488;-84
2022/05/31 00:58:21;;;;;;;14.48;3.50;;;;;;;;;;5053858;28;20446;-84
2022/05/31 01:00:50;;;;;;;16.77;3.08;;;;;;;;;;5072181;28;20781;-84
2022/05/31 01:03:18;;;;;;;5.20;2.75;;;;;;;;;;5053871;28;20017;-85
2022/05/31 01:05:44;;;;;;;10.10;2.78;;;;;;;;;;5053784;28;20504;-84
2022/05/31 01:08:10;;;;;;;7.25;2.60;;;;;;;;;;5072008;28;20041;-84
2022/05/31 01:10:37;;;;;;;6.40;2.17;;;;;;;;;;5073789;28;20020;-84
2022/05/31 01:13:03;;;;;;;6.63;2.10;;;;;;;;;;5053788;28;20091;-83
2022/05/31 01:15:29;;;;;;;5.20;2.30;;;;;;;;;;5071555;28;20025;-85
2022/05/31 01:17:55;;;;;;;5.60;2.00;;;;;;;;;;5071606;28;20035;-84
2022/05/31 01:20:22;;;;;;;4.18;2.33;;;;;;;;;;5053732;28;20009;-84
2022/05/31 01:22:50;;;;;;;8.98;3.08;;;;;;;;;;5071571;28;20027;-85
2022/05/31 01:25:23;;;;;;;5.50;2.33;;;;;;;;;;5071381;28;20012;-83
2022/05/31 01:28:07;;;;;;;7.95;2.78;;;;;;;;;;5071869;28;20104;-83
2022/05/31 01:30:35;;;;;;;7.95;2.30;;;;;;;;;;5053218;28;20021;-84
2022/05/31 01:33:10;;;;;;;11.75;3.45;;;;;;;;;;5053936;28;20023;-83
2022/05/31 01:35:37;;;;;;;10.00;2.50;;;;;;;;;;5071143;28;20532;-84
2022/05/31 01:38:15;;;;;;;7.78;3.08;;;;;;;;;;5071924;28;20017;-83
2022/05/31 01:40:44;;;;;;;18.38;3.42;;;;;;;;;;5071616;28;20024;-84
2022/05/31 01:43:11;;;;;;;11.23;3.22;;;;;;;;;;5071473;28;20085;-83
2022/05/31 01:45:56;;;;;;;10.48;4.80;;;;;;;;;;5071039;28;20031;-85
2022/05/31 01:48:23;;;;;;;4.10;2.00;;;;;;;;;;5071087;28;20032;-85
2022/05/31 01:50:49;;;;;;;4.28;1.88;;;;;;;;;;5071634;28;20012;-84
2022/05/31 01:53:16;;;;;;;6.57;2.72;;;;;;;;;;5070839;28;20532;-84
2022/05/31 01:55:44;;;;;;;9.00;3.17;;;;;;;;;;5070833;28;20499;-84
2022/05/31 01:58:14;;;;;;;8.55;2.42;;;;;;;;;;5052762;28;20024;-84
2022/05/31 02:00:40;;;;;;;7.97;2.10;;;;;;;;;;5070950;28;20035;-84
2022/05/31 02:03:07;;;;;;;13.60;2.22;;;;;;;;;;5070778;28;20121;-84
2022/05/31 02:05:33;;;;;;;11.88;2.97;;;;;;;;;;5052457;28;20017;-84
2022/05/31 02:08:01;;;;;;;8.00;2.42;;;;;;;;;;5070558;28;20485;-83
2022/05/31 02:10:28;;;;;;;13.95;2.33;;;;;;;;;;5052652;28;20509;-85
2022/05/31 02:12:54;;;;;;;5.07;2.13;;;;;;;;;;5070881;28;20465;-82
2022/05/31 02:15:21;;;;;;;7.13;2.10;;;;;;;;;;5070649;28;20024;-84
2022/05/31 02:17:47;;;;;;;12.57;2.72;;;;;;;;;;5070197;28;20016;-83
2022/05/31 02:20:14;;;;;;;11.50;2.25;;;;;;;;;;5070861;28;20035;-84
2022/05/31 02:22:40;;;;;;;9.23;2.03;;;;;;;;;;5070591;28;20094;-84
2022/05/31 02:25:07;;;;;;;8.60;2.80;;;;;;;;;;5052611;28;20020;-82
2022/05/31 02:27:33;;;;;;;6.97;2.47;;;;;;;;;;5069984;28;20020;-84
2022/05/31 02:29:59;;;;;;;8.25;1.92;;;;;;;;;;5070310;28;20522;-83
2022/05/31 02:32:25;;;;;;;8.35;2.53;;;;;;;;;;5070450;28;20066;-84
2022/05/31 02:34:51;;;;;;;5.25;2.13;;;;;;;;;;5070171;28;20484;-84
2022/05/31 02:37:18;;;;;;;7.75;2.65;;;;;;;;;;5069909;28;20025;-83
2022/05/31 02:39:46;;;;;;;5.72;2.20;;;;;;;;;;5070541;28;20013;-84
2022/05/31 02:42:13;;;;;;;6.10;2.10;;;;;;;;;;5070610;28;20020;-84
2022/05/31 02:44:39;;;;;;;4.50;2.33;;;;;;;;;;5052092;28;20361;-84
2022/05/31 02:47:07;;;;;;;5.30;2.10;;;;;;;;;;5070151;28;20025;-82
2022/05/31 02:49:34;;;;;;;9.77;2.75;;;;;;;;;;5050728;28;20036;-84
2022/05/31 02:52:00;;;;;;;9.90;3.38;;;;;;;;;;5051019;28;20111;-84
2022/05/31 02:54:26;;;;;;;8.43;2.47;;;;;;;;;;5069527;28;20114;-85
2022/05/31 02:56:53;;;;;;;8.93;2.60;;;;;;;;;;5069536;28;20174;-84
2022/05/31 02:59:19;;;;;;;5.85;2.58;;;;;;;;;;5069457;28;20028;-85
2022/05/31 03:01:46;;;;;;;8.23;2.92;;;;;;;;;;5068755;28;20158;-84
2022/05/31 03:04:13;;;;;;;5.20;2.88;;;;;;;;;;5069312;28;20023;-85
2022/05/31 03:06:40;;;;;;;11.32;3.65;;;;;;;;;;5070260;28;20013;-84
2022/05/31 03:09:07;;;;;;;19.73;4.15;;;;;;;;;;5051570;28;20496;-85
2022/05/31 03:11:38;;;;;;;13.95;4.07;;;;;;;;;;5070230;28;20024;-84
2022/05/31 03:14:07;;;;;;;9.70;3.35;;;;;;;;;;5052338;28;20043;-84
2022/05/31 03:16:35;;;;;;;5.93;3.00;;;;;;;;;;5070341;28;20404;-84
2022/05/31 03:19:03;;;;;;;9.30;2.72;;;;;;;;;;5069736;28;20431;-83
2022/05/31 03:21:35;;;;;;;8.35;3.28;;;;;;;;;;5070251;28;20070;-83
2022/05/31 03:24:04;;;;;;;5.00;2.83;;;;;;;;;;5051812;28;20025;-84
2022/05/31 03:26:32;;;;;;;6.13;2.05;;;;;;;;;;5051696;28;20013;-84
2022/05/31 03:28:59;;;;;;;4.82;1.80;;;;;;;;;;5051827;28;20035;-83
2022/05/31 03:31:25;;;;;;;3.75;2.22;;;;;;;;;;5069960;28;20108;-84
2022/05/31 03:33:51;;;;;;;4.20;1.90;;;;;;;;;;5070126;28;20042;-83
2022/05/31 03:36:17;;;;;;;2.85;2.20;;;;;;;;;;5069959;28;20020;-82
2022/05/31 03:38:43;;;;;;;3.80;1.90;;;;;;;;;;5069799;28;20031;-83
2022/05/31 03:41:10;;;;;;;8.85;2.85;;;;;;;;;;5069911;28;20115;-84
2022/05/31 03:43:36;;;;;;;8.80;2.50;;;;;;;;;;5069999;28;20028;-83
2022/05/31 03:46:02;;;;;;;4.15;1.65;;;;;;;;;;5051670;28;20024;-84
2022/05/31 03:48:29;;;;;;;10.10;2.72;;;;;;;;;;5069790;28;20028;-84
2022/05/31 03:51:02;;;;;;;8.45;2.13;;;;;;;;;;5070129;28;20040;-83
2022/05/31 03:53:28;;;;;;;7.05;1.75;;;;;;;;;;5069679;28;20509;-82
2022/05/31 03:55:55;;;;;;;3.17;1.88;;;;;;;;;;5070242;28;20047;-83
2022/05/31 03:58:21;;;;;;;7.22;1.75;;;;;;;;;;5071272;28;20086;-83
2022/05/31 04:00:47;;;;;;;7.55;2.22;;;;;;;;;;5058253;28;20476;-83
2022/05/31 04:03:14;;;;;;;10.73;2.90;;;;;;;;;;5053536;28;20035;-84
2022/05/31 04:05:40;;;;;;;9.63;3.28;;;;;;;;;;5056289;28;20025;-83
2022/05/31 04:08:10;;;;;;;5.50;1.75;;;;;;;;;;5071121;28;20045;-82
2022/05/31 04:10:37;;;;;;;7.20;2.20;;;;;;;;;;5052433;28;20030;-83
2022/05/31 04:13:04;;;;;;;7.13;2.22;;;;;;;;;;5070409;28;20013;-84
2022/05/31 04:15:33;;;;;;;9.50;2.05;;;;;;;;;;5073950;28;21067;-85
2022/05/31 04:17:59;;;;;;;12.80;2.88;;;;;;;;;;5055283;28;20027;-84
2022/05/31 04:20:26;;;;;;;6.65;1.45;;;;;;;;;;5055597;28;20074;-83
2022/05/31 04:23:57;;;;;;;6.47;1.40;;;;;;;;;;5073051;28;20056;-83
2022/05/31 04:25:38;;;;;;;6.68;1.98;;;;;;;;;;5072750;28;20461;-82
2022/05/31 04:28:04;;;;;;;8.43;1.75;;;;;;;;;;5073294;28;20027;-84
2022/05/31 04:30:30;;;;;;;4.70;1.63;;;;;;;;;;5073154;28;20027;-84
2022/05/31 04:32:56;;;;;;;5.80;1.60;;;;;;;;;;5055216;28;20042;-84
2022/05/31 04:35:22;;;;;;;4.05;2.00;;;;;;;;;;5073315;28;20487;-83
2022/05/31 04:37:48;;;;;;;4.28;1.40;;;;;;;;;;5073315;28;20027;-84
2022/05/31 04:40:15;;;;;;;8.60;1.45;;;;;;;;;;5073246;28;20016;-84
2022/05/31 04:42:43;;;;;;;8.82;1.92;;;;;;;;;;5072998;28;20108;-83
2022/05/31 04:45:09;;;;;;;2.38;1.85;;;;;;;;;;5073262;28;20046;-84
2022/05/31 04:47:36;;;;;;;6.05;1.20;;;;;;;;;;5073030;28;20021;-84
2022/05/31 04:50:02;;;;;;;2.78;1.17;;;;;;;;;;5072937;28;20354;-83
2022/05/31 04:52:28;;;;;;;8.93;2.22;;;;;;;;;;5073399;28;20027;-84
2022/05/31 04:54:54;;;;;;;7.95;1.30;;;;;;;;;;5072458;28;20027;-83
2022/05/31 04:57:20;;;;;;;6.25;1.67;;;;;;;;;;5073040;28;20027;-84
2022/05/31 04:59:46;;;;;;;1.45;1.13;;;;;;;;;;5072804;28;20024;-84
2022/05/31 05:02:13;;;;;;;6.43;1.60;;;;;;;;;;5072639;28;20024;-83
2022/05/31 05:04:39;;;;;;;2.55;1.35;;;;;;;;;;5054824;28;20040;-84
2022/05/31 05:07:05;;;;;;;5.88;1.23;;;;;;;;;;5072606;28;20025;-84
2022/05/31 05:09:31;;;;;;;5.40;2.33;;;;;;;;;;5072191;28;20093;-84
2022/05/31 05:11:57;;;;;;;5.97;1.90;;;;;;;;;;5072458;28;20091;-83
2022/05/31 05:14:24;;;;;;;5.10;1.23;;;;;;;;;;5072382;28;20028;-84
2022/05/31 05:16:50;;;;;;;2.90;1.20;;;;;;;;;;5072491;28;20059;-84
2022/05/31 05:19:16;;;;;;;2.72;1.88;;;;;;;;;;5072546;28;20056;-84
2022/05/31 05:21:43;;;;;;;3.47;1.40;;;;;;;;;;5072856;28;20017;-83
2022/05/31 05:24:09;;;;;;;2.72;1.17;;;;;;;;;;5072353;28;20370;-84
2022/05/31 05:26:36;;;;;;;7.00;1.40;;;;;;;;;;5053432;28;20024;-84
2022/05/31 05:31:47;;;;;;;4.03;1.25;;;;;;;;;;5072466;28;20153;-83
2022/05/31 05:34:13;;;;;;;3.83;1.30;;;;;;;;;;5072509;28;20028;-84
2022/05/31 05:36:40;;;;;;;9.95;1.50;;;;;;;;;;5072656;28;20040;-83
2022/05/31 05:39:10;;;;;;;12.48;1.52;;;;;;;;;;5054458;28;20492;-84
2022/05/31 05:41:35;;;;;;;;;;;;;;;;;;5072668;28;20107;-84
2022/05/31 05:44:02;;;;;;;4.88;1.73;;;;;;;;;;5071899;28;20479;-83
2022/05/31 05:46:29;;;;;;;5.35;1.08;;;;;;;;;;5072397;28;20031;-84
2022/05/31 05:48:55;;;;;;;7.53;1.45;;;;;;;;;;5072008;28;20036;-83
2022/05/31 05:51:29;;;;;;;4.47;1.33;;;;;;;;;;5057461;28;20024;-84
2022/05/31 05:53:55;;;;;;;3.38;1.25;;;;;;;;;;5055568;28;20020;-83
2022/05/31 05:56:22;;;;;;;6.35;0.95;;;;;;;;;;5072137;28;20074;-85
2022/05/31 05:58:48;;;;;;;7.30;1.30;;;;;;;;;;5053947;28;20016;-84
2022/05/31 06:01:30;;;;;;;3.78;1.42;;;;;;;;;;5071692;28;20019;-84
2022/05/31 06:03:56;;;;;;;3.83;1.48;;;;;;;;;;5071521;28;20048;-84
2022/05/31 06:06:24;;;;;;;5.43;1.48;;;;;;;;;;5053922;28;20534;-84
2022/05/31 06:09:01;;;;;;;5.65;2.13;;;;;;;;;;5071346;28;20052;-84
2022/05/31 06:11:36;;;;;;;7.25;1.27;;;;;;;;;;5071736;28;20112;-83
2022/05/31 06:14:20;;;;;;;6.07;1.90;;;;;;;;;;5071436;28;20016;-84
2022/05/31 06:16:51;;;;;;;3.25;1.20;;;;;;;;;;5071675;28;20035;-84
2022/05/31 06:19:18;;;;;;;5.72;1.38;;;;;;;;;;5071088;28;20020;-85
2022/05/31 06:21:45;;;;;;;9.93;1.83;;;;;;;;;;5071974;28;20020;-84
2022/05/31 06:24:12;;;;;;;5.03;1.00;;;;;;;;;;5053560;28;20020;-85
2022/05/31 06:26:39;;;;;;;5.35;1.90;;;;;;;;;;5071687;28;20999;-84
2022/05/31 06:29:05;;;;;;;2.20;0.80;;;;;;;;;;5072111;28;20028;-84
2022/05/31 06:31:31;;;;;;;1.58;1.13;;;;;;;;;;5071678;28;20013;-84
2022/05/31 06:33:57;;;;;;;6.25;1.33;;;;;;;;;;5071635;28;20020;-84
2022/05/31 06:36:24;;;;;;;7.57;1.00;;;;;;;;;;5071146;28;20020;-84
2022/05/31 06:38:50;;;;;;;3.38;1.13;;;;;;;;;;5071006;28;20024;-84
2022/05/31 06:41:16;;;;;;;2.67;1.35;;;;;;;;;;5070923;28;20013;-84
2022/05/31 06:43:42;;;;;;;1.70;1.10;;;;;;;;;;5071095;28;20027;-83
2022/05/31 06:46:10;;;;;;;3.42;1.27;;;;;;;;;;5071030;28;20504;-84
2022/05/31 06:48:36;;;;;;;3.15;1.15;;;;;;;;;;5071012;28;20032;-83
2022/05/31 06:51:03;;;;;;;4.25;1.58;;;;;;;;;;5071654;28;20048;-84
2022/05/31 06:58:58;;;;;;;2.80;1.27;;;;;;;;;;5071240;28;20088;-83
2022/05/31 07:01:37;;;;;;;6.70;1.40;;;;;;;;;;5071236;28;20008;-83
2022/05/31 07:04:05;;;;;;;11.55;1.27;;;;;;;;;;5058705;28;20131;-84
2022/05/31 07:06:32;;;;;;;1.40;0.98;;;;;;;;;;5070846;28;20015;-83
2022/05/31 07:08:59;;;;;;;1.38;1.00;;;;;;;;;;5052824;28;20045;-85
2022/05/31 07:11:26;;;;;;;9.40;1.27;;;;;;;;;;5046614;28;20020;-82
2022/05/31 07:13:52;;;;;;;8.02;1.05;;;;;;;;;;5054926;28;20024;-85
2022/05/31 07:16:18;;;;;;;11.70;3.13;;;;;;;;;;5069334;28;20028;-84
2022/05/31 07:18:44;;;;;;;7.60;1.70;;;;;;;;;;5048551;28;20021;-83
2022/05/31 07:21:11;;;;;;;12.40;1.48;;;;;;;;;;5049623;28;20021;-87
2022/05/31 07:23:38;;;;;;;9.73;1.67;;;;;;;;;;5060103;28;20811;-86
2022/05/31 07:26:04;;;;;;;4.03;1.27;;;;;;;;;;5052069;28;20544;-85
2022/05/31 07:28:31;;;;;;;11.65;1.60;;;;;;;;;;5064043;28;20844;-90
2022/05/31 07:30:57;;;;;;;5.80;0.93;;;;;;;;;;5067337;28;20028;-87
2022/05/31 07:33:23;;;;;;;7.53;1.25;;;;;;;;;;5069198;28;20028;-87
2022/05/31 07:35:50;;;;;;;2.22;1.50;;;;;;;;;;5058436;28;20392;-77
2022/05/31 07:38:23;;;;;;;5.50;1.27;;;;;;;;;;5064067;28;20013;-76
2022/05/31 07:40:49;;;;;;;6.75;1.17;;;;;;;;;;5055922;28;20012;-78
2022/05/31 07:43:16;;;;;;;5.00;1.52;;;;;;;;;;5057145;28;20509;-77
2022/05/31 07:45:42;;;;;;;3.60;1.65;;;;;;;;;;5072265;28;20012;-78
2022/05/31 07:48:09;;;;;;;6.22;1.73;;;;;;;;;;5065790;28;20027;-80
2022/05/31 07:50:35;;;;;;;8.75;2.15;;;;;;;;;;5069671;28;20028;-80
2022/05/31 07:53:03;;;;;;;7.72;1.85;;;;;;;;;;5079564;28;20020;-80
2022/05/31 07:55:30;;;;;;;11.15;1.70;;;;;;;;;;5059875;28;20017;-79
2022/05/31 08:00:41;;;;;;;9.35;1.85;;;;;;;;;;5070547;28;20554;-79
2022/05/31 08:03:08;;;;;;;4.55;1.20;;;;;;;;;;5069979;28;20111;-80
2022/05/31 08:05:37;;;;;;;4.25;1.17;;;;;;;;;;5055923;28;20031;-79
2022/05/31 08:08:04;;;;;;;7.53;2.33;;;;;;;;;;5054488;28;20068;-79
2022/05/31 08:10:30;;;;;;;7.65;1.60;;;;;;;;;;5039005;28;20036;-80
2022/05/31 08:12:56;;;;;;;3.60;1.65;;;;;;;;;;5054590;28;20013;-78
2022/05/31 08:15:23;;;;;;;6.00;1.30;;;;;;;;;;5053731;28;20116;-78
2022/05/31 08:17:49;;;;;;;13.68;2.05;;;;;;;;;;5053972;28;20070;-78
2022/05/31 08:20:18;;;;;;;3.40;1.35;;;;;;;;;;5041594;28;20447;-78
2022/05/31 08:22:45;;;;;;;6.03;1.90;;;;;;;;;;5046578;28;20017;-78
2022/05/31 08:25:11;;;;;;;9.98;1.80;;;;;;;;;;5053053;28;20021;-79
2022/05/31 08:27:37;;;;;;;4.68;1.35;;;;;;;;;;5047852;28;20104;-78
2022/05/31 08:30:05;;;;;;;8.27;1.73;;;;;;;;;;5052241;28;20033;-77
2022/05/31 08:32:31;;;;;;;2.72;1.40;;;;;;;;;;5051137;28;20032;-78
2022/05/31 08:34:57;;;;;;;8.43;1.67;;;;;;;;;;5051702;28;20029;-78
2022/05/31 08:37:24;;;;;;;4.10;1.70;;;;;;;;;;5047324;28;20009;-79
2022/05/31 08:39:50;;;;;;;4.00;1.63;;;;;;;;;;5050643;28;21249;-78
2022/05/31 08:42:21;;;;;;;5.72;1.65;;;;;;;;;;5052976;28;20033;-79
2022/05/31 08:44:50;;;;;;;7.68;1.45;;;;;;;;;;5052504;28;20059;-80
2022/05/31 08:47:36;;;;;;;1.85;1.27;;;;;;;;;;5046201;28;20029;-78
2022/05/31 08:53:05;;;;;;;5.28;2.38;;;;;;;;;;5045613;28;20024;-78
2022/05/31 08:58:24;;;;;;;4.07;1.70;;;;;;;;;;5052239;28;20090;-80
2022/05/31 09:00:51;;;;;;;10.88;1.80;;;;;;;;;;5049370;28;20025;-79
2022/05/31 09:03:41;;;;;;;5.68;1.50;;;;;;;;;;5052097;28;20037;-77
2022/05/31 09:06:08;;;;;;;5.95;1.92;;;;;;;;;;5034157;28;20095;-78
2022/05/31 09:08:44;;;;;;;4.55;1.40;;;;;;;;;;5062300;28;20444;-80
2022/05/31 09:11:25;;;;;;;5.57;1.40;;;;;;;;;;5069733;28;20052;-79
2022/05/31 09:13:57;;;;;;;6.32;2.33;;;;;;;;;;5072031;28;20012;-80
2022/05/31 09:16:32;;;;;;;1.88;1.45;;;;;;;;;;5072113;28;20024;-79
2022/05/31 09:19:04;;;;;;;6.00;1.85;;;;;;;;;;5071242;28;20362;-83
2022/05/31 09:21:32;;;;;;;8.75;1.75;;;;;;;;;;5047086;28;20396;-86
2022/05/31 09:23:59;;;;;;;4.88;1.58;;;;;;;;;;5064699;28;20024;-82
2022/05/31 09:26:25;;;;;;;3.53;1.45;;;;;;;;;;5071849;28;20032;-80
2022/05/31 09:29:00;;;;;;;8.80;2.17;;;;;;;;;;5070592;28;20032;-85
2022/05/31 09:31:48;;;;;;;4.10;1.42;;;;;;;;;;5072160;28;20020;-82
2022/05/31 09:34:17;;;;;;;7.03;2.22;;;;;;;;;;5056795;28;20029;-82
2022/05/31 09:37:12;;;;;;;3.97;1.63;;;;;;;;;;5071734;28;20013;-80
2022/05/31 09:39:57;;;;;;;5.50;1.60;;;;;;;;;;5057905;28;20037;-81
2022/05/31 09:42:30;;;;;;;7.82;1.77;;;;;;;;;;5065774;28;20102;-82
2022/05/31 09:45:08;;;;;;;4.32;1.70;;;;;;;;;;5064024;28;20545;-81
2022/05/31 09:47:35;;;;;;;3.40;1.65;;;;;;;;;;5071386;28;20024;-82
2022/05/31 09:50:02;;;;;;;8.35;2.00;;;;;;;;;;5053002;28;20432;-80
2022/05/31 09:52:34;;;;;;;8.10;1.80;;;;;;;;;;5069818;28;20021;-81
2022/05/31 09:58:14;;;;;;;2.67;1.40;;;;;;;;;;5070744;28;20119;-81
2022/05/31 10:01:01;;;;;;;8.45;1.77;;;;;;;;;;5063634;28;20066;-81
2022/05/31 10:03:33;;;;;;;6.38;1.70;;;;;;;;;;5065260;28;20024;-81
2022/05/31 10:06:19;;;;;;;6.32;1.85;;;;;;;;;;5069289;28;20008;-82
2022/05/31 10:08:51;;;;;;;7.70;2.08;;;;;;;;;;5072410;28;20133;-82
2022/05/31 10:11:23;;;;;;;9.18;1.75;;;;;;;;;;5058103;28;20027;-81
2022/05/31 10:13:57;;;;;;;9.05;2.03;;;;;;;;;;5069849;28;20018;-81
2022/05/31 10:16:25;;;;;;;11.90;2.35;;;;;;;;;;5070267;28;20043;-81
2022/05/31 10:18:54;;;;;;;3.45;1.90;;;;;;;;;;5070152;28;20028;-81
2022/05/31 10:21:36;;;;;;;10.65;3.28;;;;;;;;;;5069343;28;20478;-82
2022/05/31 10:24:19;;;;;;;4.47;2.00;;;;;;;;;;5070057;28;20111;-79
2022/05/31 10:27:04;;;;;;;6.85;2.47;;;;;;;;;;5069964;28;20024;-81
2022/05/31 10:29:33;;;;;;;2.60;1.90;;;;;;;;;;5069383;28;20129;-81
2022/05/31 10:31:59;;;;;;;3.20;1.90;;;;;;;;;;5069796;28;20035;-81
2022/05/31 10:34:33;;;;;;;13.25;3.10;;;;;;;;;;5070210;28;20016;-81
2022/05/31 10:37:00;;;;;;;5.07;2.00;;;;;;;;;;5070293;28;20024;-82
2022/05/31 10:39:33;;;;;;;4.20;1.75;;;;;;;;;;5069933;28;20016;-83
2022/05/31 10:42:00;;;;;;;7.63;1.90;;;;;;;;;;5070008;28;20028;-82
2022/05/31 10:44:44;;;;;;;31.20;3.55;;;;;;;;;;5069630;28;20165;-81
2022/05/31 10:47:12;;;;;;;7.22;1.85;;;;;;;;;;5069646;28;20031;-81
2022/05/31 10:49:39;;;;;;;4.90;1.33;;;;;;;;;;5069852;28;20116;-82
2022/05/31 10:52:08;;;;;;;;;;;;;;;;;;5069861;28;20184;-82
2022/05/31 10:54:37;;;;;;;5.55;2.50;;;;;;;;;;5069765;28;19963;-81
2022/05/31 10:57:21;;;;;;;2.28;2.00;;;;;;;;;;5069891;28;20023;-81
2022/05/31 10:59:58;;;;;;;6.35;3.03;;;;;;;;;;5069669;28;20055;-81
2022/05/31 11:02:24;;;;;;;2.83;1.75;;;;;;;;;;5069696;28;20036;-81
2022/05/31 11:04:50;;;;;;;5.82;1.85;;;;;;;;;;5069735;28;20075;-82
2022/05/31 11:07:17;;;;;;;7.70;2.15;;;;;;;;;;5069173;28;20028;-81
2022/05/31 11:13:00;;;;;;;5.15;2.00;;;;;;;;;;5069662;28;20051;-81
2022/05/31 11:15:26;;;;;;;4.53;1.85;;;;;;;;;;5069348;28;20508;-81
2022/05/31 11:18:10;;;;;;;9.38;2.53;;;;;;;;;;5069232;28;20048;-81
2022/05/31 11:20:37;;;;;;;10.52;2.50;;;;;;;;;;5068995;28;20863;-81
2022/05/31 11:23:15;;;;;;;12.05;2.10;;;;;;;;;;5068200;28;20044;-81
2022/05/31 11:25:59;;;;;;;4.35;2.35;;;;;;;;;;5069896;28;20021;-80
2022/05/31 11:28:43;;;;;;;5.78;2.17;;;;;;;;;;5069107;28;20028;-80
2022/05/31 11:31:45;;;;;;;4.85;2.33;;;;;;;;;;5069506;28;20448;-80
2022/05/31 11:34:17;;;;;;;7.70;2.38;;;;;;;;;;4987031;28;20117;-80
2022/05/31 11:36:53;;;;;;;13.35;2.30;;;;;;;;;;5038985;28;20120;-81
2022/05/31 11:39:35;;;;;;;12.35;1.92;;;;;;;;;;5049268;28;20021;-80
2022/05/31 11:42:01;;;;;;;6.03;2.63;;;;;;;;;;5051408;28;20024;-81
2022/05/31 11:44:47;;;;;;;7.25;2.03;;;;;;;;;;5071596;28;20058;-80
2022/05/31 11:47:16;;;;;;;7.18;2.75;;;;;;;;;;5069614;28;20032;-81
2022/05/31 11:49:54;;;;;;;3.67;1.73;;;;;;;;;;5069456;28;20024;-81
2022/05/31 11:52:38;;;;;;;6.75;2.10;;;;;;;;;;5069583;28;20021;-81
2022/05/31 11:57:48;;;;;;;4.65;2.40;;;;;;;;;;5069229;28;20565;-81
2022/05/31 12:00:16;;;;;;;4.75;2.22;;;;;;;;;;5069644;28;20091;-81
2022/05/31 12:02:49;;;;;;;5.78;2.05;;;;;;;;;;5071076;28;20039;-80
2022/05/31 12:05:23;;;;;;;9.05;2.22;;;;;;;;;;5070142;28;20031;-81
2022/05/31 12:08:00;;;;;;;4.68;1.90;;;;;;;;;;5068539;28;20029;-86
2022/05/31 12:10:32;;;;;;;11.18;2.20;;;;;;;;;;5018371;28;20513;-80
2022/05/31 12:13:04;;;;;;;5.05;2.40;;;;;;;;;;5019844;28;20432;-81
2022/05/31 12:15:33;;;;;;;7.93;2.40;;;;;;;;;;5052271;28;20566;-80
2022/05/31 12:18:03;;;;;;;9.25;2.50;;;;;;;;;;5057759;28;20017;-80
2022/05/31 12:20:30;;;;;;;7.30;2.08;;;;;;;;;;5044527;28;20108;-81
2022/05/31 12:22:59;;;;;;;8.93;2.40;;;;;;;;;;5042111;28;20037;-81
2022/05/31 12:25:27;;;;;;;6.40;2.78;;;;;;;;;;5048726;28;20021;-80
2022/05/31 12:28:05;;;;;;;7.65;2.45;;;;;;;;;;5048053;28;20036;-81
2022/05/31 12:30:36;;;;;;;4.68;2.00;;;;;;;;;;5044645;28;20503;-81
2022/05/31 12:33:21;;;;;;;4.68;3.08;;;;;;;;;;5041362;28;20495;-80
2022/05/31 12:35:48;;;;;;;6.07;2.72;;;;;;;;;;5051171;28;20078;-81
2022/05/31 12:38:14;;;;;;;5.30;2.40;;;;;;;;;;5052562;28;20097;-80
2022/05/31 12:40:47;;;;;;;6.65;2.88;;;;;;;;;;5030366;28;20397;-82
2022/05/31 12:43:15;;;;;;;7.07;2.13;;;;;;;;;;5070783;28;20469;-81
2022/05/31 12:45:47;;;;;;;6.45;2.30;;;;;;;;;;5070154;28;20552;-82
2022/05/31 12:48:13;;;;;;;8.05;2.25;;;;;;;;;;5053954;28;20010;-81
2022/05/31 12:51:05;;;;;;;6.93;2.00;;;;;;;;;;5052049;28;20040;-81
2022/05/31 12:53:37;;;;;;;11.82;2.92;;;;;;;;;;5035066;28;20029;-82
2022/05/31 12:56:05;;;;;;;5.60;2.67;;;;;;;;;;5032217;28;20018;-81
2022/05/31 12:58:34;;;;;;;4.50;2.20;;;;;;;;;;5061987;28;20071;-81
2022/05/31 13:01:10;;;;;;;6.03;2.47;;;;;;;;;;5047296;28;20032;-81
2022/05/31 13:03:39;;;;;;;5.13;2.72;;;;;;;;;;5060949;28;20025;-80
2022/05/31 13:06:07;;;;;;;11.02;2.15;;;;;;;;;;5031976;28;20476;-81
2022/05/31 13:08:51;;;;;;;9.68;2.50;;;;;;;;;;5071586;28;20041;-81
2022/05/31 13:19:44;;;;;;;6.80;2.08;;;;;;;;;;5071693;28;20066;-76
2022/05/31 13:22:16;;;;;;;13.80;2.75;;;;;;;;;;5070871;28;20020;-80
2022/05/31 13:24:46;;;;;;;13.93;2.38;;;;;;;;;;5070952;28;20024;-80
2022/05/31 13:27:16;;;;;;;5.88;2.45;;;;;;;;;;5070644;28;20048;-80
2022/05/31 13:29:43;;;;;;;13.18;2.67;;;;;;;;;;5050256;28;20044;-80
2022/05/31 13:32:11;;;;;;;2.15;1.95;;;;;;;;;;5072827;28;20044;-81
2022/05/31 13:34:40;;;;;;;15.93;3.40;;;;;;;;;;5070917;28;20089;-81
2022/05/31 13:37:18;;;;;;;5.15;2.25;;;;;;;;;;5058463;28;20032;-80
2022/05/31 13:39:45;;;;;;;9.73;2.35;;;;;;;;;;5068465;28;20048;-81
2022/05/31 13:42:21;;;;;;;5.90;2.50;;;;;;;;;;5070946;28;20009;-80
2022/05/31 13:44:48;;;;;;;8.00;2.60;;;;;;;;;;5052138;28;20012;-80
2022/05/31 13:47:17;;;;;;;8.52;2.70;;;;;;;;;;5060889;28;20466;-80
2022/05/31 13:49:44;;;;;;;8.00;2.40;;;;;;;;;;5071490;28;20032;-81
2022/05/31 13:52:25;;;;;;;9.63;4.10;;;;;;;;;;5062889;28;20020;-80
2022/05/31 13:54:53;;;;;;;6.78;2.63;;;;;;;;;;5074840;28;20028;-80
2022/05/31 13:57:24;;;;;;;11.88;2.97;;;;;;;;;;5069286;28;20461;-80
2022/05/31 13:59:55;;;;;;;6.20;2.65;;;;;;;;;;5067166;28;20012;-79
2022/05/31 14:02:53;;;;;;;17.15;3.88;;;;;;;;;;5070592;28;20480;-79
2022/05/31 14:05:25;;;;;;;12.10;3.63;;;;;;;;;;5065651;28;20024;-81
2022/05/31 14:07:53;;;;;;;9.57;3.60;;;;;;;;;;5070693;28;20602;-80
2022/05/31 14:10:21;;;;;;;9.55;3.17;;;;;;;;;;5052229;28;20044;-80
2022/05/31 14:12:47;;;;;;;7.47;3.70;;;;;;;;;;5070635;28;20034;-82
2022/05/31 14:15:24;;;;;;;12.55;3.25;;;;;;;;;;5070197;28;20025;-74
2022/05/31 14:17:50;;;;;;;9.82;2.70;;;;;;;;;;5061300;28;20540;-75
2022/05/31 14:20:21;;;;;;;5.15;2.88;;;;;;;;;;5068347;28;20013;-80
2022/05/31 14:22:48;;;;;;;6.90;3.28;;;;;;;;;;5067986;28;20020;-76
2022/05/31 14:25:18;;;;;;;6.75;2.85;;;;;;;;;;5070087;28;20015;-76
2022/05/31 14:27:46;;;;;;;7.13;3.03;;;;;;;;;;5069182;28;20493;-77
2022/05/31 14:30:27;;;;;;;7.47;3.05;;;;;;;;;;5069563;28;20331;-75
2022/05/31 14:33:00;;;;;;;7.00;3.33;;;;;;;;;;5074542;28;20025;-77
2022/05/31 14:35:38;;;;;;;10.13;3.20;;;;;;;;;;5073007;28;20097;-75
2022/05/31 14:38:06;;;;;;;7.95;2.40;;;;;;;;;;5050393;28;20374;-77
2022/05/31 14:40:34;;;;;;;13.88;3.10;;;;;;;;;;5067614;28;20422;-74
2022/05/31 14:43:14;;;;;;;8.82;2.58;;;;;;;;;;5060862;28;20021;-76
2022/05/31 14:45:40;;;;;;;5.45;2.15;;;;;;;;;;5069556;28;20472;-77
2022/05/31 14:48:26;;;;;;;8.45;2.47;;;;;;;;;;5069239;28;20106;-74
2022/05/31 14:50:56;;;;;;;8.95;3.30;;;;;;;;;;5066961;28;20124;-75
2022/05/31 14:53:22;;;;;;;8.20;3.65;;;;;;;;;;5068425;28;20086;-76
2022/05/31 14:55:51;;;;;;;5.28;2.75;;;;;;;;;;5067707;28;20023;-75
2022/05/31 14:58:40;;;;;;;6.93;4.10;;;;;;;;;;5068796;28;20025;-75
2022/05/31 15:01:14;;;;;;;4.85;3.08;;;;;;;;;;5063246;28;20389;-75
2022/05/31 15:04:01;;;;;;;6.85;3.33;;;;;;;;;;5067353;28;20060;-75
2022/05/31 15:06:30;;;;;;;3.72;2.40;;;;;;;;;;5069386;28;20024;-75
2022/05/31 15:09:05;;;;;;;5.32;3.40;;;;;;;;;;5050568;28;20040;-76
2022/05/31 15:19:46;;;;;;;6.68;3.22;;;;;;;;;;5060666;28;20020;-75
2022/05/31 15:22:14;;;;;;;6.35;2.83;;;;;;;;;;5067694;28;20060;-76
2022/05/31 15:24:42;;;;;;;8.45;2.72;;;;;;;;;;5067351;28;20037;-75
2022/05/31 15:27:19;;;;;;;3.88;2.72;;;;;;;;;;5068012;28;20034;-75
2022/05/31 15:29:45;;;;;;;7.35;3.42;;;;;;;;;;5068774;28;20052;-76
2022/05/31 15:32:11;;;;;;;11.25;4.45;;;;;;;;;;5067954;28;20385;-76
2022/05/31 15:34:38;;;;;;;10.90;2.95;;;;;;;;;;5068261;28;20396;-75
2022/05/31 15:37:06;;;;;;;8.32;3.70;;;;;;;;;;5067775;28;20032;-75
2022/05/31 15:39:34;;;;;;;8.45;3.35;;;;;;;;;;5067802;28;20021;-74